Weather at Henderson Executive Airport

Public forecast

Using degrees Fahrenheit for public forecast. Weather courtesy of forecast.io.

Current aviation weather report (METAR) for Henderson Executive Airport

Retrieved 2021/01/26 05:56 UTC (56 minutes ago):

KHND 260556Z AUTO 17011KT 10SM OVC055 03/M03 A2955 RMK AO2 SLP033 T00281033 10044 20028 53008

Aviation forecast (TAF) for Henderson Executive Airport

Retrieved 2021/01/26 06:22 UTC (30 minutes ago):

TAF KHND 260520Z 2606/2706 18010KT P6SM BKN070 FM260900 20007KT 3SM -SN BR SCT007 OVC020 FM261600 VRB05KT P6SM BKN020 FM262000 VRB05KT P6SM BKN040 FM270200 18007KT P6SM SCT040 BKN200